METAR

METAR RPLL (MNL) – NINOY AQUINO INTERNATIONAL AIRPORT (MANILA INTERNATIONAL AIRPORT)
RPLL 251000Z 26020KT 6000 RA FEW018 BKN020 OVC080 26/25 Q0999 NOSIG RMK A2950
RPLL 250900Z 26018KT 6000 RA FEW018 BKN020 OVC080 27/25 Q1000 NOSIG RMK A2953
RPLL 250800Z 26018KT 8000 -RA FEW020 SCT022 OVC090 27/25 Q1000 NOSIG RMK A2953
RPLL 250700Z 24018KT 8000 -RA SCT022 OVC090 27/25 Q1000 NOSIG RMK A2953
RPLL 250600Z 25013KT 8000 -RA SCT022 OVC090 27/26 Q1001 NOSIG RMK A2956
RPLL 250500Z 27010KT 8000 -RA SCT022 OVC090 27/26 Q1002 NOSIG RMK A2959
RPLL 250400Z 27008KT 8000 -RA BKN022 OVC090 28/26 Q1003 NOSIG RMK A2962
RPLL 250300Z 30008KT 260V350 8000 -SHRA SCT023 OVC090 28/25 Q1004 NOSIG RMK A2965
RPLL 250200Z 29007KT 260V330 9000 SCT023 OVC090 28/25 Q1004 NOSIG RMK A2965
RPLL 250100Z 30005KT 270V360 8000 SCT023 OVC090 28/24 Q1005 NOSIG RMK A2968
RPLL 250000Z 30005KT 250V330 8000 SCT023 OVC090 28/24 Q1005 NOSIG RMK A2968
RPLL 242300Z 32003KT 260V340 8000 SCT023 OVC090 28/24 Q1005 NOSIG RMK A2968
RPLL 242200Z 29004KT 250V320 9000 SCT025 OVC090 28/25 Q1004 NOSIG RMK A2965
RPLL 242100Z VRB03KT 9000 SCT025 BKN090 28/25 Q1003 NOSIG RMK A2962
RPLL 242000Z 23003KT 200V270 8000 -RA SCT025 BKN090 27/25 Q1003 TEMPO 6000 RMK A2962
RPLL 241900Z VRB02KT 9999 FEW025 BKN100 28/25 Q1004 NOSIG RMK A2965
RPLL 241800Z 20003KT 180V240 9999 FEW025 BKN100 28/25 Q1004 NOSIG RMK A2965
RPLL 241700Z VRB02KT 9999 FEW025 BKN100 28/24 Q1004 NOSIG RMK A2965
RPLL 241600Z 22003KT 9999 FEW025 BKN100 28/24 Q1005 NOSIG RMK A2968
RPLL 241500Z VRB02KT 9999 FEW025 BKN100 28/24 Q1006 NOSIG RMK A2971
RPLL 241400Z 23003KT 9999 SCT023 BKN100 28/24 Q1006 NOSIG RMK A2971
RPLL 241300Z 23005KT 9999 SCT023 BKN100 28/24 Q1006 NOSIG RMK A2971
RPLL 241200Z 22006KT 9999 SCT023 BKN100 28/24 Q1005 NOSIG RMK A2968
RPLL 241100Z 22006KT 180V240 9000 SCT023 BKN100 28/24 Q1004 NOSIG RMK A2965
RPLL 241000Z 24009KT 9000 SCT023 BKN100 29/25 Q1004 NOSIG RMK A2965
RPLL 240900Z 26008KT 9000 FEW023CB SCT025 OVC100 30/25 Q1004 NOSIG RMK A2965
RPLL 240800Z 28006KT 240V300 8000 FEW025 BKN300 31/25 Q1003 NOSIG RMK A2962
RPLL 240700Z 27008KT 240V300 9000 FEW025 BKN300 31/24 Q1003 NOSIG RMK A2962
RPLL 240600Z 27006KT 220V310 9000 FEW025 BKN300 32/25 Q1004 NOSIG RMK A2965
RPLL 240500Z 29004KT 220V010 9000 FEW025 SCT300 31/24 Q1005 NOSIG RMK A2968
RPLL 240400Z 29007KT 9000 FEW025 SCT300 31/24 Q1006 NOSIG RMK A2971
RPLL 240300Z 27007KT 240V300 9000 FEW025 SCT300 29/24 Q1006 NOSIG RMK A2971
RPLL 240200Z 29006KT 250V320 9000 FEW025 SCT300 30/26 Q1007 NOSIG RMK A2974
RPLL 240100Z 26005KT 180V290 9000 FEW025 SCT300 29/25 Q1007 NOSIG RMK A2974
RPLL 240000Z VRB02KT 8000 FEW025 BKN290 28/26 Q1007 NOSIG RMK A2974
RPLL 232300Z VRB02KT 9999 FEW025 BKN290 26/24 Q1007 NOSIG RMK A2974
RPLL 232200Z 11001KT 9000 FEW025 25/24 Q1006 NOSIG RMK A2971
RPLL 232100Z 00000KT 9000 FEW025 25/24 Q1005 NOSIG RMK A2968
RPLL 232000Z VRB02KT 9000 FEW025 SCT100 25/24 Q1005 NOSIG RMK A2968
RPLL 231900Z 21002KT 9000 FEW025 BKN100 25/24 Q1006 NOSIG RMK A2971

RPVM (CEB) – MACTAN-CEBU INTERNATIONAL AIRPORT
RPVM 251000Z 24014G23KT 9999 VCSH SCT020 OVC100 28/23 Q1006 RMK A2971 VCSH NE SW
RPVM 250900Z 23017KT 9999 VCSH SCT020 OVC100 29/24 Q1005 RMK A2968 VCSH NE-E
RPVM 250800Z 23018KT 9999 FEW018CB BKN100 29/24 Q1004 RMK A2965 CB NE
RPVM 250700Z 24018KT 9999 FEW018CB BKN100 30/24 Q1004 RMK A2965 CB NE-E
RPVM 250600Z 21015KT 9999 VCSH FEW018CB BKN100 30/25 Q1004 RMK A2965 CB/VCSH NE
RPVM 250500Z 21015KT 160V230 9999 SCT018CB BKN300 30/26 Q1005 RESHRA RMK A2968 CB WSW-N/NE
RPVM 250400Z 20014KT 9999 VCSH FEW018CB SCT100 BKN300 31/25 Q1006 RMK A2971 CB N-NNE/W VCSH NNE/W
RPVM 250300Z 22015KT 9999 FEW020TCU SCT100 BKN250 30/25 Q1006 RMK A2971 TCU N/S
RPVM 250200Z 22017KT 9999 FEW020 BKN250 30/25 Q1007 RMK A2974
RPVM 250100Z 22013KT 9999 VCSH FEW020 BKN250 30/25 Q1007 RMK A2974 VCSH SSE-SE
RPVM 250000Z 23011KT 9999 FEW020 SCT100 BKN250 28/24 Q1007 RMK A2974
RPVM 242300Z 22008KT 9999 FEW020 OVC100 27/24 Q1007 RMK A2974
RPVM 242200Z 24006KT 9999 FEW020 OVC100 26/23 Q1006 RMK A2971
RPVM 242100Z 24007KT 9999 FEW020 BKN100 26/23 Q1005 RMK A2968
RPVM 242000Z 21004KT 9999 FEW020 BKN100 25/23 Q1005 RMK A2968
RPVM 241900Z 21008KT 9999 FEW020 BKN100 25/24 Q1005 RMK A2968
RPVM 241800Z 26010KT 9999 FEW020 BKN100 25/23 Q1005 RMK A2968
RPVM 241700Z 23008KT 9999 FEW020 BKN100 25/24 Q1005 RERA RMK A2968
RPVM 241600Z 23008KT 9000 -RA SCT020 OVC090 25/24 Q1007 RMK A2974
RPVM 241500Z 22009KT 9999 FEW020 OVC100 26/24 Q1007 RERA RMK A2974
RPVM 241400Z 23006KT 9000 -RA FEW020CB OVC090 25/24 Q1008 RMK A2977
RPVM 241300Z 25005KT 8000 -RA FEW018CB OVC090 25/24 Q1008 RETS RMK A2977 CB NE
RPVM 241200Z 24009KT 8000 TSRA FEW018CB OVC090 25/24 Q1007 RMK A2974 CB SSW-S/NW/SE-E W/ OCNL TS/LTNG
RPVM 241100Z 25006KT 8000 -TSHRA SCT018CB OVC090 27/24 Q1007 RM KA2974 CB OHD S-NW SE-E W/ OCNL TS LTG
RPVM 241000Z 23006KT 200V290 9999 SCT018CB OVC100 27/24 Q1005 RMK A2968 CB W SW S SE E NE
RPVM 240900Z 32005KT 9999 -TS FEW018CB OVC100 27/24 Q1005 RMK A268 CB NE SE SW W/ OCCNL TS
RPVM 240800Z 02008KT 9999 FEW018CB OVC100 27/24 Q1005 RMK A2968 CB NE SE
RPVM 240700Z 06009KT 9999 SCT018CB OVC100 27/24 Q1005 RMK A2968 CB NW-E
RPVM 240600Z VRB04KT 8000 -SHRA SCT018CB OVC090 29/24 Q1005 RMK A2968 CB OHD
RPVM 240500Z 24004KT 9999 SCT020 BKN100 31/22 Q1006 RMK A2971
RPVM 240400Z 07007KT 9999 SCT020 BKN100 30/22 Q1007 RMK A2974
RPVM 240300Z 10007KT 9999 SCT020 SCT100 BKN300 30/23 Q1007 RMK A2974
RPVM 240200Z 09003KT 9999 SCT020 SCT300 31/23 Q1007 RMK A2974
RPVM 240100Z 25003KT 9999 FEW020 SCT100 29/22 Q1007 RMK A2974
RPVM 240000Z 25003KT 9999 FEW020 SCT100 28/23 Q1007 RMK A2974
RPVM 232300Z 25002KT 9999 FEW020 BKN100 26/24 Q1007 RMK A2974
RPVM 232200Z 28002KT 9999 FEW018CB BKN100 25/23 Q1007 RMK A2974 CB SSE-E
RPVM 232100Z 32003KT 9999 FEW018CB SCT300 26/24 Q1006 RMK A2971 CB E
RPVM 232000Z 25002KT 9999 FEW020 SCT300 26/23 Q1007 RMK A2974
RPVM 231900Z 20002KT 9999 FEW020 BKN100 26/24 Q1007 RMK A2974

RPLC (CRK) – CLARK INTERNATIONAL AIRPORT
RPLC 251000Z 34008KT 5000 BKN018 OVC090 25/23 Q1000 RERA RMK A2953
RPLC 250900Z 24006KT 5000 -RA SCT018 OVC090 26/24 Q1000 RMK A2953
RPLC 250700Z 04007KT 5000 -RA SCT018 OVC090 29/26 Q1002 RMK A2959
RPLC 250600Z 04006KT 6000 -RA SCT018 OVC090 28/25 Q1002 RMK A2959
RPLC 250500Z 18008KT 6000 -RA SCT020 OVC100 28/25 Q1003 RMK A2962
RPLC 250400Z 04004KT 6000 -RA SCT020 OVC100 29/26 Q1005 RMK A2968
RPLC 250300Z 36001KT 6000 SCT020 OVC100 29/25 Q1005 NOSIG RMK A2968
RPLC 250200Z 02006KT 6000 SCT020 OVC100 28/25 Q1006 RMK A2971
RPLC 250100Z 25002KT 6000 -RA SCT020 OVC100 28/24 Q1006 RMK A2971
RPLC 250000Z 25002KT 6000 -RA SCT020 OVC100 26/24 Q1007 RMK A2974
RPLC 242300Z 36002KT 6000 -RA SCT020 OVC100 25/24 Q1007 RMK A2974
RPLC 242200Z 25002KT 6000 -RA SCT020 BKN100 26/23 Q1006 RMK A2971
RPLC 242100Z 12002KT 6000 SCT020 BKN100 26/24 Q1005 NOSIG RMK A2968
RPLC 242000Z 25002KT 6000 SCT020 BKN100 26/24 Q1005 RERA RMK A2968
RPLC 241900Z 07002KT 8000 SCT020 BKN100 27/23 Q1006 NOSIG RMK A2971
RPLC 241800Z 07002KT 8000 SCT020 BKN100 27/23 Q1006 NOSIG RMK A2971
RPLC 241700Z 24002KT 8000 SCT020 BKN100 26/23 Q1006 NOSIG RMK A2971
RPLC 241600Z 16003KT 8000 SCT020 BKN100 27/23 Q1006 NOSIG RMK A2971
RPLC 241500Z 21003KT 8000 SCT020 BKN100 28/23 Q1007 NOSIG RMK A2974
RPLC 241200Z 20002KT 8000 SCT020 BKN100 30/23 Q1006 NOSIG RMK A2971
RPLC 241100Z 18006KT 8000 SCT020 BKN300 31/23 Q1006 NOSIG RMK A2971
RPLC 241000Z 34004KT 8000 SCT020 BKN300 30/23 Q1005 NOSIG RMK A2968
RPLC 240700Z 02006KT 8000 SCT020 BKN300 33/23 Q1005 NOSIG RMK A2968
RPLC 240600Z 32002KT 8000 FEW020 BKN300 33/23 Q1006 NOSIG RMK A2971
RPLC 240400Z 36004KT 8000 FEW020 BKN300 32/23 Q1007 NOSIG RMK A2974
RPLC 240300Z 35004KT 8000 FEW020 BKN300 31/22 Q1008 NOSIG RMK A2977
RPLC 240200Z 36008KT 8000 FEW020 SCT300 31/22 Q1009 NOSIG RMK A2980
RPLC 240100Z 07002KT 8000 FEW020 SCT300 30/22 Q1009 NOSIG RMK A2980
RPLC 232300Z 09002KT 5000 HZ FEW020 BKN300 28/23 Q1008 NOSIG RMK A2977
RPLC 232200Z 14002KT 5000 HZ FEW020 BKN300 26/22 Q1008 NOSIG RMK A2977
RPLC 232100Z 04002KT 7000 FEW020 BKN300 26/22 Q1007 NOSIG RMK A2974
RPLC 232000Z 27002KT 7000 FEW020 BKN300 25/22 Q1007 NOSIG RMK A2974
RPLC 231900Z 18002KT 7000 FEW020 BKN300 27/22 Q1008 NOSIG RMK A2977

RPLB (SFS) – SUBIC BAY INTERNATIONAL AIRPORT
RPLB 251000Z 32008KT 260V350 5000 -RA BKN018 OVC070 27/25 Q1002 RMK A2959
RPLB 250900Z VRB02KT 6000 -RA BKN018 OVC070 27/25 Q1002 RMK A2959
RPLB 250800Z 31005KT 280V340 9000 SCT018 BKN080 28/24 Q1002 RMK A2959
RPLB 250700Z 31003KT 240V340 9999 SCT018 BKN080 28/24 Q1002 RERA RMK A2959
RPLB 250600Z VRB02KT 9000 -RA SCT018 BKN080 29/24 Q1003 RMK A2962
RPLB 250500Z 16004KT 120V220 9999 FEW018 SCT080 BKN300 29/24 Q1004 RMK A2965
RPLB 250400Z 22005KT 180V250 9999 FEW018 SCT080 BKN300 29/24 Q1004 RMK A2965
RPLB 250300Z VRB02KT 9999 FEW018 SCT080 BKN300 29/24 Q1005 RMK A2968
RPLB 250200Z 05003KT 9999 FEW018 SCT080 BKN300 28/25 Q1006 RMK A2971
RPLB 250100Z VRB01KT 9999 FEW018 BKN080 27/24 Q1006 RMK A2971
RPLB 250000Z 06005KT 9999 SCT018 BKN080 26/24 Q1006 RMK A2971
RPLB 242300Z VRB02KT 9999 SCT018 BKN080 25/24 Q1005 RMK A2968
RPLB 242200Z VRB01KT 9999 SCT018 BKN080 25/24 Q1005 RMK A2968
RPLB 242100Z VRB02KT 9000 -SHRA SCT018 BKN080 25/24 Q1005 RMK A2968
RPLB 242000Z VRB01KT 9999 FEW018 BKN080 25/23 Q1005 NOSIG RMK A2968
RPLB 241900Z 07006KT 9999 FEW018 SCT080 25/23 Q1005 NOSIG RMK A2968
RPLB 241800Z VRB02KT 9999 FEW018 BKN080 26/24 Q1005 NOSIG RMK A2968
RPLB 241700Z 06006KT 9999 SCT018 BKN080 26/24 Q1005 NOSIG RMK A2968
RPLB 241600Z 08004KT 9999 SCT018 BKN080 26/24 Q1006 NOSIG RMK A2971
RPLB 241500Z VRB01KT 9999 SCT018 BKN080 27/24 Q1007 NOSIG RMK A2974
RPLB 241400Z VRB02KT 9999 SCT018 BKN080 27/24 Q1007 NOSIG RMK A2974
RPLB 241300Z VRB02KT 9999 FEW018 SCT300 28/23 Q1007 NOSIG RMK A2974
RPLB 241200Z 02003KT 340V080 9999 FEW018 SCT300 28/24 Q1006 NOSIG RMK A2971
RPLB 241100Z 36004KT 300V040 9999 FEW020 BKN300 28/24 Q1005 NOSIG RMK A2968
RPLB 241000Z 33005KT 280V020 9999 SCT020 BKN300 28/23 Q1004 NOSIG RMK A2965
RPLB 240900Z VRB02KT 9999 SCT020 BKN300 30/23 Q1005 NOSIG RMK A2968
RPLB 240800Z 16004KT 130V200 9999 FEW020 BKN300 30/23 Q1004 NOSIG RMK A2965
RPLB 240700Z 21006KT 9999 SCT020 BKN300 31/23 Q1005 NOSIG RMK A2968
RPLB 240600Z 21006KT 9999 SCT020 BKN300 31/23 Q1005 NOSIG RMK A2968
RPLB 240500Z 22007KT 9999 SCT020 BKN300 31/24 Q1006 NOSIG RMK A2971
RPLB 240400Z 25006KT 210V290 9999 FEW020 BKN300 30/24 Q1007 NOSIG RMK A2974
RPLB 240300Z 29004KT 230V360 9999 FEW020 BKN300 29/24 Q1008 NOSIG RMK A2977
RPLB 240200Z 31003KT 260V350 9999 FEW020 BKN300 29/23 Q1008 NOSIG RMK A2977
RPLB 240100Z VRB02KT 9999 FEW020 BKN300 28/24 Q1008 NOSIG RMK A2977
RPLB 240000Z VRB01KT 9999 FEW020 BKN300 26/24 Q1008 NOSIG RMK A2977
RPLB 232300Z 05003KT 010V080 9999 FEW020 SCT300 25/23 Q1008 NOSIG RMK A2977
RPLB 232200Z 05004KT 9000 FEW018 SCT080 BKN300 23/23 Q1007 NOSIG RMK A2974
RPLB 232100Z VRB02KT 9999 FEW020 SCT080 23/22 Q1007 NOSIG RMK A2974
RPLB 232000Z VRB02KT 9999 FEW020 SCT080 24/23 Q1007 NOSIG RMK A2974
RPLB 231900Z 12004KT 9999 FEW020 SCT080 23/23 Q1007 NOSIG RMK A2974

RPLI (LAO) – LAOAG INTERNATIONAL AIRPORT
RPLI 251000Z 06007KT 030V090 5000 -SHRA SCT018 BKN090 28/25 Q1003 RMK A2952
RPLI 250900Z 02012KT 6000 VCSH SCT018 BKN100 29/25 Q1002 RMK A2959 CB SW VCSH NE-SW
RPLI 250800Z 02016KT 8000 VCSH FEW017CB BKN100 30/26 Q1001 RMK A2956 CB SW VCSH NE-SE
RPLI 250700Z 01016KT 9999 FEW018 BKN100 30/26 Q1001 RMK A2956
RPLI 250600Z 01012KT 8000 VCSH FEW018 SCT100 BKN290 32/23 Q1002 RMK A2959 VCSH SE
RPLI 250500Z 05005KT 020V100 87000 VCSH FEW017CB BKN100 30/25 Q1003 RMK A2962 CB NE VCSH NE/SE
RPLI 250400Z 35004KT 320V020 7000 -RA FEW018 BKN090 29/26 Q1004 RMK A2965
RPLI 250300Z 03005KT 8000 VCSH FEW018 BKN100 29/26 Q1006 RMK A2971 VCSH N/SW
RPLI 250200Z VRB01KT 8000 VCSH FEW018 BKN100 25/25 Q1006 RMK A2971 VCSH SE/SW-NW
RPLI 250100Z VRB02KT 6000 -RA FEW018 OVC090 25/24 Q1006 RMK A2971
RPLI 250000Z 10004KT 9999 FEW018 BKN100 25/24 Q1006 RMK A2971
RPLI 242300Z VRB01KT 9999 FEW018 BKN090 25/24 Q1005 RMK A2968
RPLI 242200Z 06003KT 030V100 9999 FEW018 BKN090 24/24 Q1004 RMK A2965
RPLI 242100Z VRB02KT 9999 FEW018 BKN290 25/24 Q1004 RMK A2965
RPLI 241800Z 02005KT 6000 -SHRA SCT018 OVC090 26/24 Q1005 RMK A2968
RPLI 241500Z 01010KT 9999 FEW018 BKN100 28/23 Q1006 NOSIG RMK A2971
RPLI 241200Z 02012KT 9999 FEW018 BKN290 28/23 Q1005 NOSIG RMK A2968
RPLI 241100Z 01011KT 9999 FEW018 BKN290 28/23 Q1005 NOSIG RMK A2968
RPLI 241000Z 01010KT 9999 FEW017CB BKN280 29/23 Q1005 NOSIG RMK A2968 CB SE
RPLI 240900Z 01008KT 8000 SCT018 BKN090 30/23 Q1004 RMK A2965
RPLI 240800Z 03011KT 8000 VCSH SCT018 BKN090 30/24 Q1004 RMK A2965 VCSH N-NE
RPLI 240700Z 03013KT 8000 VCSH SCT018 BKN090 31/24 Q1005 RMK A2968 VCSH S
RPLI 240600Z 02012KT 8000 VCSH FEW017CB SCT018 BKN100 31/24 Q1005 RMK A2968 CB/VCSH NE-SE
RPLI 240500Z 03015KT 9999 BKN018TCU BKN100 31/24 Q1005 NOSIG RMK A2968 TCU SW
RPLI 240400Z 03014KT 9999 SCT018TCU BKN290 31/24 Q1006 NOSIG RMK A2971 TCU SW
RPLI 240300Z 01011KT 340V060 9999 SCT018 BKN290 31/26 Q1006 NOSIG RMK A2971
RPLI 240200Z 01007KT 9999 FEW018 BKN290 31/25 Q1007 NOSIG RMK A2974
RPLI 240100Z 03005KT 350V070 9999 FEW018TCU BKN290 30/24 Q1007 NOSIG RMK A2974 TCU NW
RPLI 240000Z 09003KT 060V120 9999 FEW018 BKN290 27/23 Q1007 NOSIG RMK A2974
RPLI 232300Z 09003KT 050V130 9999 FEW017CB FEW018 24/21 Q1007 NOSIG RMK A2974 CB W
RPLI 232200Z 09003KT 9999 FEW017CB FEW018 22/21 Q1006 NOSIG RMK A2971 CB WNW
RPLI 232100Z VRB02KT 9999 FEW018 22/21 Q1006 NOSIG RMK A2971

RPVP (PPS) – PUERTO PRINCESA INTERNATIONAL AIRPORT
RPVP 251000Z 24008KT 5000 RA SCT019 OVC080 25/24 Q1006 RMK A2971
RPVP 250900Z 21004KT 5000 RA SCT019 OVC080 26/24 Q1005 RMK A2968
RPVP 250700Z 21006KT 8000 -SHRA FEW017CB OVC080 27/24 Q1005 RMK A2968 CB SSE SW-W
RPVP 250600Z 27010KT 9999 FEW017CB OVC080 28/24 Q1006 RMK A2971 CB SE/SW/W-NW
RPVP 250500Z 27010G30KT 9999 -SHRA FEW017CB OVC080 29/24 Q1007 RMK A2974 CB SW/WSW-NW
RPVP 250400Z 30008G30KT 9999 FEW017CB BKN080 OVC240 29/23 Q1007 RMK A2974 CB WSW-NW
RPVP 250300Z 30004G20KT 9999 FEW017CB BKN080 OVC240 30/24 Q1007 RMK A2974 CB E/WSW-NW
RPVP 250200Z 27004KT 9999 FEW019 BKN080 31/25 Q1008 RMK A2977
RPVP 250100Z 27004KT 9999 FEW019 SCT080 29/25 Q1008 RMK A2977
RPVP 250000Z 18004KT 9999 FEW019 SCT080 BKN240 28/23 Q1008 RMK A2977
RPVP 242300Z 18004KT 9999 FEW017CB SCT080 BKN240 26/24 Q1007 RMK A2974 CB NNW
RPVP 242200Z 18004KT 9999 FEW019 SCT080 BKN240 25/23 Q1006 RMK A2971
RPVP 242100Z 18004KT 9999 FEW019 SCT080 25/24 Q1006 RMK A2971
RPVP 241800Z 27004KT 9999 FEW019 25/24 Q1006 RMK A2971
RPVP 241500Z 29006KT 9999 FEW019 BKN080 26/24 Q1008 RMK A2977
RPVP 241200Z 27004KT 9999 -SHRA FEW019 SCT080 2 6/25 Q1008 RMK A2977
RPVP 241100Z 27006KT 9999 -SHRA FEW017CB SCT080 26/25 Q1007 RMK A2974 CB W-WNW
RPVP 241000Z 18004KT 9999 FEW019 OVC240 26/24 Q1006 RMK A2971
RPVP 240700Z 27006KT 0500 -SHRA FEW019 SCT080 BKN240 26/25 Q1006 RMK A2971 METAR RPVD 240700Z 14006KT 9999 VCSH FEW014CB FEW015 BKN070 31/24 Q1004 RMK A2965 CB VCSH E-SE
RPVP 240600Z 27020G30KT 0500 +SHRA SCT019 OVC080 29/24 Q1007 RMK A2974
RPVP 240400Z 27012KT 9999 FEW019 SCT080 31/23 Q1008 RMK A2977
RPVP 240300Z 36002KT 9999 FEW019 SCT080 29/24 Q1008 RMK A2977
RPVP 240200Z 36002KT 9999 FEW019 BKN080 28/24 Q1008 RMK A2977
RPVP 240100Z 21002KT 9999 FEW019 OVC080 26/25 Q1009 RMK A2980
RPVP 232300Z 27006KT 9999 FEW019 OVC080 25/24 Q1008 RERA RMK A2977
RPVP 232200Z 33006KT 9999 -RA FEW019 OVC080 25/23 Q1008 RMK A2977
RPVP 232100Z 33004KT 9999 -RA FEW019 OVC080 24/23 Q1008 RMK A2977

RPVD (DGT) – SIBULAN AIRPORT (DUMAGUETE AIRPORT)
RPVD 250900Z 07004KT 9000 -RA SCT014 OVC070 27/24 Q1005 RMK A2968
RPVD 250700Z 02004KT 9999 -RA SCT015 OVC070 28/24 Q1004 RMK A2965
RPVD 250600Z 32004KT 9999 -SHRA FEW014CB SCT015 OVC070 28/25 Q1004 RMK A2965 CB W/NW
RPVD 250500Z 00000KT 9999 -SHRA SCT014CB OVC070 28/25 Q1005 RMK A2968 CB W/NW
RPVD 250400Z 11010KT 9000 -RA SCT014 OVC070 27/25 Q1006 RMK A2971
RPVD 250300Z 14004KT 8000 -RA SCT015 OVC070 27/25 Q1006 RMK A2971 METAR RPMR 250300Z 24011KT 210V280 9999 FEW018CB SCT080 34/19 Q1007 RMK A2974 CB NE
RPVD 250200Z 00000KT 8000 -RA SCT015 OVC070 27/25 Q1008 RMK A2977
RPVD 250100Z 00000KT 6000 SHRA FEW014CB BKN015 OVC070 27/25 Q1007 RMK A2974 CB E/SW/W
RPVD 250000Z 00000KT 9999 -SHRA FEW014CB SCT015 OVC070 27/25 Q1007 RMK A2974 CB S/SW
RPVD 242100Z 22004KT 9999 FEW015 SCT070 26/24 Q1004 RESHRA RMK A2965
RPVD 241800Z 27004KT 9999 FEW015 SCT070 BKN220 26/24 Q1004 RMK A2965
RPVD 241500Z 29004KT 9999 SCT015 OVC070 26/24 Q1006 RMK A2971
RPVD 241200Z 07004KT 9000 -SHRA FEW014CB SCT015 OVC070 26/24 Q1006 RMK A2971 CB NE W/ OCNL LTG
RPVD 240600Z 22004KT 9999 FEW014CB SCT015 SCT070 30/25 Q1004 RESHRA RMK A2965
RPVD 240400Z 00000KT 9999 VCSH FEW014CB FEW015 BKN070 29/25 Q1006 RESHRA RMK A2971 CB/VCSH NE/E
RPVD 240300Z 27004KT 9999 -SHRA FEW014CB FEW015 BKN070 28/25 Q1007 RMK A2974 CB NW
RPVD 240200Z 34012KT 9000 -SHRA FEW014CB SCT015 30/25 Q1008 RMK A2977 CB WNW-N
RPVD 240100Z 25004KT 9999 FEW014CB FEW015 30/25 Q1008 RMK A2977 CB NW
RPVD 232100Z 27006KT 9999 FEW014CB FEW015 BKN070 27/22 Q1005 RMK A2968 CB/OCNL LTG E

RPMR (GES) – GENERAL SANTOS INTERNATIONAL AIRPORT
RPMR 250900Z 23007KT 9000 SCT018CB OVC080 31/19 Q1006 RMK A2971 CB NE NW
RPMR 250700Z 24013KT 200V280 9999 FEW018CB SCT080 36/20 Q1005 RMK A2968
RPMR 250600Z 22016G26KT 9999 FEW018CB SCT080 34/20 Q1005 RMK A2968 CB NE
RPMR 250500Z 23014KT 210V270 9999 FEW018CB SCT080 35/19 Q1005 RMK A2968 CB NE/NW
RPMR 250400Z 25011G21KT 190V290 9999 FEW018 SCT080 34/19 Q1007 RMK A2974
RPMR 250200Z 24009KT 210V280 9999 FEW018 SCT080 33/22 Q1008 RMK A2977
RPMR 250100Z VRB04KT 9999 FEW018 BKN250 30/23 Q1009 RMK A2980
RPMR 250000Z VRB03KT 9999 FEW018 BKN250 28/23 Q1009 RMK A2980
RPMR 240700Z 27005KT 270V330 9000 -RA SCT018 BKN080 28/24 Q1005 RMK A2968
RPMR 240600Z 34010KT 8000 -RA SCT018 BKN080 26/24 Q1006 RKM A2971
RPMR 240400Z 13010KT 100V170 9999 FEW018 SCT080 BKN250 32/22 Q1007 RKM A2974
RPMR 240300Z VRB05KT 9999 FEW018 BKN250 31/22 Q1008 RKM A2977
RPMR 240200Z 16004KT 090V210 9999 FEW018 BKN250 30/22 Q1009 RKM A2980
RPMR 240100Z 12004KT 090V170 9999 FEW018 BKN250 28/22 Q1009 RKM A2980

RPMD (DVO) – FRANCISCO BANGOY INTERNATIONAL AIRPORT
RPMD 251000Z 08005KT 9999 FEW015CB SCT090 BKN290 30/23 Q1006 RMK A2971 CB NNW-N NE W
RPMD 250900Z 09005KT 9999 FEW015CB BKN090 BKN290 31/24 Q1005 RMK A2968 CB NNW-N NE W
RPMD 250800Z 01005KT 340V050 9999 FEW015CB BKN090 BKN290 32/23 Q1004 RMK A2965 CB NNW-N NE SW
RPMD 250700Z 35007KT 310V030 9999 FEW015CB BKN090 BKN290 31/23 Q1004 RMK A2965 CB NNW-N NE SW
RPMD 250600Z 33008KT 300V010 9999 SCT015CB BKN090 BKN290 32/24 Q1004 RMK A2965 CB W/NNW-N/NE/S-SSW
RPMD 250500Z 02007KT 340V060 9999 VCSH FEW015CB BKN090 BKN260 33/23 Q1004 RMK A2965 CBNW-N/ENE/SW VCSH NW-NNW/NE
RPMD 250400Z 16006KT 130V200 9999 VCSH FEW015CB BKN090 BKN290 32/23 Q1006 RMK A2971 CB/VCSH WNW
RPMD 250300Z 15004KT 110V170 9999 FEW016 SCT090 BKN290 31/25 Q1006 RMK A2971
RPMD 250200Z 13006KT 050V210 9999 SCT016 SCT090 32/24 Q1007 RMK A2974
RPMD 250100Z 04006KT 340V110 9999 FEW016 SCT290 31/23 Q1008 RMK A2977
RPMD 250000Z 03005KT 350V070 9999 FEW016 SCT290 30/24 Q1007 RMK A2974
RPMD 242300Z 34003KT 310V030 9999 FEW016 SCT090 28/24 Q1007 RMK A2974
RPMD 242200Z VRB02KT 9999 FEW016 SCT290 25/25 Q1006 RMK A2971
RPMD 242100Z 27004KT 250V310 9999 FEW016 BKN290 25/24 Q1006 RMK A2971
RPMD 242000Z 36002KT 9999 FEW016 SCT290 25/25 Q1005 RMK A2968
RPMD 241900Z 33003KT 9999 FEW016 SCT290 25/24 Q1005 RMK A2968
RPMD 241800Z 33003KT 9999 FEW016 25/24 Q1006 RMK A2971
RPMD 241700Z VRB02KT 9999 FEW016 26/24 Q1006 RMK A2971
RPMD 241600Z 01003KT 9999 FEW016 26/25 Q1006 RMK A2971
RPMD 241400Z 02003KT 9999 FEW016 BKN260 26/22 Q1008 RMK A2977
RPMD 241300Z 01003KT 320V030 9999 FEW015CB OVC260 26/22 Q1008 RMK A2977 OCNL LTG
RPMD 241200Z 36004KT 310V040 9999 FEW016 OVC260 26/22 Q1007 RMK A2974
RPMD 241100Z 02004KT 9999 FEW015CB SCT090 BKN260 27/23 Q1006 RMK A2971 CB NE W/ OCNL LTG
RPMD 241000Z 03006KT 360V060 9999 FEW015CB SCT090 BKN290 29/24 Q1006 RMK A2971 CB NW N NE W/ OCNL LTG
RPMD 240900Z 11003KT 070V140 9999 FEW015CB SCT090 BKN290 31/22 Q1005 RMK A2968 CB NW NNE
RPMD 240800Z 14006KT 110V170 9999 FEW015CB SCT090 BKN290 32/23 Q1004 RMK A2965 CB-NNW S
RPMD 240700Z 16008KT 120V200 9999 FEW015CB BKN290 32/23 Q1004 RMK A29
RPMD 240600Z 17006KT 130V210 9999 FEW015CB BKN290 32/24 Q1004 RMK A2965 CB NNW/S
RPMD 240500Z 15006KT 110V190 9999 FEW016 BKN290 31/24 Q1005 RMK A2968
RPMD 240400Z 14005KT 080V190 9999 SCT016 BKN290 32/24 Q1006 RMK A2971
RPMD 240300Z VRB03KT 9999 FEW016 BKN260 30/24 Q1007 RMK A2974
RPMD 240200Z 04005KT 010V100 9999 FEW016 BKN260 30/24 Q1008 RMK A2977
RPMD 240100Z 25003KT 190V320 9999 FEW016 BKN260 29/23 Q1008 RMK A2977
RPMD 240000Z 18003KT 110V230 9999 FEW016 SCT090 BKN260 27/24 Q1008 RMK A2977
RPMD 232300Z 28002KT 9999 FEW016 SCT090 BKN260 26/26 Q1007 RMK A2974
RPMD 232200Z 24003KT 9999 FEW016 BKN260 24/24 Q1006 RMK A2971
RPMD 232100Z 31003KT 9999 FEW016 SCT290 24/24 Q1006 RMK A2971
RPMD 232000Z VRB02KT 9999 FEW016 SCT290 24/24 Q1006 RMK A2971
RPMD 231900Z 06002KT 9999 FEW016 SCT290 24/24 Q1007 RMK A2974

RPMZ (ZAM) – ZAMBOANGA INTERNATIONAL AIRPORT
RPMZ 251000Z 27005KT 9999 SCT015 OVC090 27/24 Q1007 RMK A2974
RPMZ 250900Z 28007KT 9999 FEW016CB FEW017 OVC090 27/24 Q1006 RMK A2971 CB SW-NW OHD
RPMZ 250800Z 27010KT 9999 SCT015 OVC090 27/25 Q1006 RMK A2971
RPMZ 250700Z 27009KT 220V290 9999 SCT015 OVC090 27/24 Q1006 RMK A2971
RPMZ 250600Z 26008KT 220V290 9000 SCT015 OVC090 26/23 Q1007 RMK A2974
RPMZ 250508Z 26012G23KT 190V290 9999 -SHRA SCT016CB BKN090 28/24 Q1008 RMK A2977 CB OHD
RPMZ 250400Z 29012KT 240V310 9999 FEW017 BKN090 29/24 Q1008 RMK A2977
RPMZ 250300Z 28010KT 9999 SCT017 OVC090 28/24 Q1009 RMK A2980
RPMZ 250200Z 29012KT 9000 -RA SCT016CB OVC080 27/25 Q1009 RMK A2980 CB SW-NE
RPMZ 250100Z 28014KT 240V300 8000 -SHRA SCT016CB BKN090 26/25 Q1010 RMK A2983 CB ALQDS/OHD
RPMZ 250000Z 28007KT 240V300 9999 FEW016CB BKN090 28/25 Q1009 RMK A2980 CB E-SE/SW-NW
RPMZ 242300Z 27006KT 9999 FEW016CB BKN090 26/24 Q1008 RMK A2977 CB E/SW-NW
RPMZ 242200Z 28007KT 9999 FEW017 BKN090 25/23 Q1007 RERA RMK A2974
RPMZ 242100Z 29009KT 9999 -RA SCT017 OVC080 26/25 Q1006 RESHRA RMK A2971
RPMZ 241800Z VRB02KT 9999 FEW016CB FEW017 BKN090 25/24 Q1007 RESHRA RMK A2974 CB W
RPMZ 241500Z 24003KT 210V270 9999 FEW017 BKN090 27/24 Q1009 RMK A2980
RPMZ 241200Z 28004KT 9999 FEW016CB BKN090 27/25 Q1008 RESHRA RMK A2977 CB SE
RPMZ 241000Z 28005KT 250V320 9999 FEW016CB BKN300 28/24 Q1006 RMK A2971 CB NE
RPMZ 240900Z 28009KT 250V320 9999 FEW06CB SCT300 29/25 Q1006 RMK A2971 CB NE W-NW
RPMZ 240800Z 28012KT 250V310 9999 FEW016CB SCT300 30/24 Q1005 RMK A2968 CB NW-NE W
RPMZ 240700Z 27011KT 9999 FEW016CB SCT300 29/25 Q1005 RMK A2968 CB NE
RPMZ 240600Z 25009KT 210V280 9999 FEW017 SCT090 30/24 Q1006 RMK A2971
RPMZ 240500Z 25010KT 210V290 9999 FEW017 SCT090 29/24 Q1007 RMK A2974
RPMZ 240400Z 28013KT 230V310 9999 FEW016CB FEW017 SCT090 32/25 Q1008 RMK A2977 CB NE-E/SW
RPMZ 240300Z 27013KT 9999 FEW016CB FEW017 BKN090 32/24 Q1008 RMK A2977 CB NE-E
RPMZ 240200Z 26011KT 220V290 9999 FEW016CB FEW017 BKN090 32/25 Q1009 RMK A2980 CB NE/E
RPMZ 240100Z 06003KT 330V120 9999 FEW017 BKN090 29/25 Q1009 RMK A2980
RPMZ 240000Z VRB02KT 9999 FEW016CB FEW017 BKN090 28/24 Q1009 RMK A2980 CB SW
RPMZ 232300Z 00000KT 9999 FEW017 BKN090 26/25 Q1008 RMK A2977
RPMZ 232200Z 00000KT 9999 FEW017 SCT090 25/24 Q1007 RMK A2974
RPMZ 232100Z VRB01KT 9999 FEW017 SCT090 24/24 Q1007 RMK A2974